sensor_id;sensor_type;location;lat;lon;timestamp;pressure;altitude;pressure_sealevel;temperature;humidity
54876;BME280;40764;48.472;8.166;2022-12-07T00:04:49;98298.38;;;4.73;92.35
54876;BME280;40764;48.472;8.166;2022-12-07T00:10:49;98299.34;;;4.61;93.60
54876;BME280;40764;48.472;8.166;2022-12-07T00:16:51;98287.63;;;4.56;94.05
54876;BME280;40764;48.472;8.166;2022-12-07T00:23:04;98289.31;;;4.62;94.70
54876;BME280;40764;48.472;8.166;2022-12-07T00:29:07;98285.22;;;4.59;94.85
54876;BME280;40764;48.472;8.166;2022-12-07T00:35:08;98282.91;;;4.68;94.21
54876;BME280;40764;48.472;8.166;2022-12-07T00:41:19;98286.78;;;4.50;94.12
54876;BME280;40764;48.472;8.166;2022-12-07T00:47:21;98277.78;;;4.45;93.87
54876;BME280;40764;48.472;8.166;2022-12-07T00:53:43;98269.31;;;4.36;94.36
54876;BME280;40764;48.472;8.166;2022-12-07T00:59:43;98274.00;;;4.46;94.22
54876;BME280;40764;48.472;8.166;2022-12-07T01:05:52;98272.91;;;4.69;93.57
54876;BME280;40764;48.472;8.166;2022-12-07T01:11:52;98282.88;;;4.41;94.25
54876;BME280;40764;48.472;8.166;2022-12-07T01:17:53;98280.75;;;4.43;95.12
54876;BME280;40764;48.472;8.166;2022-12-07T01:24:09;98290.97;;;4.36;95.78
54876;BME280;40764;48.472;8.166;2022-12-07T01:30:11;98293.22;;;4.22;95.37
54876;BME280;40764;48.472;8.166;2022-12-07T01:36:19;98287.03;;;4.27;95.71
54876;BME280;40764;48.472;8.166;2022-12-07T01:42:20;98293.97;;;4.40;95.62
54876;BME280;40764;48.472;8.166;2022-12-07T01:48:40;98296.38;;;4.36;96.50
54876;BME280;40764;48.472;8.166;2022-12-07T01:54:44;98315.06;;;4.38;95.88
54876;BME280;40764;48.472;8.166;2022-12-07T02:00:45;98309.41;;;4.39;95.20
54876;BME280;40764;48.472;8.166;2022-12-07T02:06:46;98310.47;;;4.38;96.04
54876;BME280;40764;48.472;8.166;2022-12-07T02:12:52;98309.00;;;4.52;94.82
54876;BME280;40764;48.472;8.166;2022-12-07T02:25:46;98302.97;;;4.45;94.81
54876;BME280;40764;48.472;8.166;2022-12-07T02:32:08;98303.38;;;4.59;93.92
54876;BME280;40764;48.472;8.166;2022-12-07T02:38:38;98302.19;;;4.50;93.94
54876;BME280;40764;48.472;8.166;2022-12-07T02:44:40;98288.16;;;4.53;93.49
54876;BME280;40764;48.472;8.166;2022-12-07T02:50:52;98296.78;;;4.28;94.21
54876;BME280;40764;48.472;8.166;2022-12-07T02:57:58;98293.47;;;4.21;93.94
54876;BME280;40764;48.472;8.166;2022-12-07T03:03:26;98290.69;;;4.16;95.26
54876;BME280;40764;48.472;8.166;2022-12-07T03:09:36;98275.84;;;4.18;95.36
54876;BME280;40764;48.472;8.166;2022-12-07T03:22:16;98265.94;;;4.29;95.84
54876;BME280;40764;48.472;8.166;2022-12-07T03:28:19;98262.25;;;4.13;96.24
54876;BME280;40764;48.472;8.166;2022-12-07T03:34:30;98272.00;;;3.92;96.97
54876;BME280;40764;48.472;8.166;2022-12-07T03:40:40;98274.97;;;4.13;96.55
54876;BME280;40764;48.472;8.166;2022-12-07T03:53:24;98265.78;;;4.14;96.15
54876;BME280;40764;48.472;8.166;2022-12-07T03:59:29;98278.34;;;4.03;96.50
54876;BME280;40764;48.472;8.166;2022-12-07T04:05:30;98278.81;;;4.17;96.54
54876;BME280;40764;48.472;8.166;2022-12-07T04:11:30;98277.53;;;4.46;95.68
54876;BME280;40764;48.472;8.166;2022-12-07T04:17:31;98272.94;;;4.47;94.07
54876;BME280;40764;48.472;8.166;2022-12-07T04:23:31;98259.91;;;4.22;94.74
54876;BME280;40764;48.472;8.166;2022-12-07T04:29:31;98265.38;;;4.27;94.63
54876;BME280;40764;48.472;8.166;2022-12-07T04:35:32;98258.72;;;4.34;94.29
54876;BME280;40764;48.472;8.166;2022-12-07T04:41:32;98256.03;;;3.91;95.75
54876;BME280;40764;48.472;8.166;2022-12-07T04:47:52;98262.72;;;3.66;97.12
54876;BME280;40764;48.472;8.166;2022-12-07T04:53:53;98253.38;;;3.96;95.90
54876;BME280;40764;48.472;8.166;2022-12-07T04:59:53;98256.47;;;3.83;96.40
54876;BME280;40764;48.472;8.166;2022-12-07T05:05:54;98246.03;;;3.91;95.30
54876;BME280;40764;48.472;8.166;2022-12-07T05:11:54;98246.00;;;3.31;95.79
54876;BME280;40764;48.472;8.166;2022-12-07T05:17:54;98254.00;;;3.42;97.15
54876;BME280;40764;48.472;8.166;2022-12-07T05:23:55;98262.16;;;3.64;95.63
54876;BME280;40764;48.472;8.166;2022-12-07T05:29:55;98262.41;;;3.63;95.46
54876;BME280;40764;48.472;8.166;2022-12-07T05:35:56;98266.09;;;3.57;95.62
54876;BME280;40764;48.472;8.166;2022-12-07T05:41:56;98273.66;;;3.55;95.58
54876;BME280;40764;48.472;8.166;2022-12-07T05:48:12;98274.72;;;3.03;96.14
54876;BME280;40764;48.472;8.166;2022-12-07T05:54:12;98276.34;;;3.38;96.72
54876;BME280;40764;48.472;8.166;2022-12-07T06:00:13;98281.94;;;3.48;95.76
54876;BME280;40764;48.472;8.166;2022-12-07T06:06:13;98286.19;;;3.44;95.43
54876;BME280;40764;48.472;8.166;2022-12-07T06:12:16;98289.72;;;3.28;96.25
54876;BME280;40764;48.472;8.166;2022-12-07T06:18:34;98279.44;;;3.63;94.89
54876;BME280;40764;48.472;8.166;2022-12-07T06:24:35;98296.94;;;3.22;96.00
54876;BME280;40764;48.472;8.166;2022-12-07T06:30:35;98299.94;;;3.59;94.57
54876;BME280;40764;48.472;8.166;2022-12-07T06:36:35;98299.88;;;3.37;95.19
54876;BME280;40764;48.472;8.166;2022-12-07T06:42:36;98303.44;;;3.43;93.85
54876;BME280;40764;48.472;8.166;2022-12-07T06:48:36;98307.91;;;3.32;94.47
54876;BME280;40764;48.472;8.166;2022-12-07T06:54:37;98304.78;;;3.40;93.78
54876;BME280;40764;48.472;8.166;2022-12-07T07:00:37;98301.41;;;3.33;93.03
54876;BME280;40764;48.472;8.166;2022-12-07T07:06:37;98298.50;;;3.18;92.94
54876;BME280;40764;48.472;8.166;2022-12-07T07:12:38;98303.53;;;2.98;94.16
54876;BME280;40764;48.472;8.166;2022-12-07T07:18:38;98310.00;;;3.14;94.62
54876;BME280;40764;48.472;8.166;2022-12-07T07:24:38;98315.69;;;3.29;93.42
54876;BME280;40764;48.472;8.166;2022-12-07T07:30:39;98321.75;;;3.19;94.01
54876;BME280;40764;48.472;8.166;2022-12-07T07:36:40;98323.03;;;3.33;92.94
54876;BME280;40764;48.472;8.166;2022-12-07T07:42:41;98325.25;;;3.36;92.99
54876;BME280;40764;48.472;8.166;2022-12-07T07:48:41;98322.84;;;3.73;92.08
54876;BME280;40764;48.472;8.166;2022-12-07T07:54:42;98321.47;;;3.54;91.26
54876;BME280;40764;48.472;8.166;2022-12-07T08:00:42;98341.72;;;3.52;91.93
54876;BME280;40764;48.472;8.166;2022-12-07T08:06:43;98339.22;;;3.84;90.98
54876;BME280;40764;48.472;8.166;2022-12-07T08:12:45;98345.38;;;3.79;91.45
54876;BME280;40764;48.472;8.166;2022-12-07T08:19:09;98342.63;;;3.96;91.70
54876;BME280;40764;48.472;8.166;2022-12-07T08:25:09;98347.59;;;4.04;90.62
54876;BME280;40764;48.472;8.166;2022-12-07T08:31:16;98340.66;;;4.08;90.30
54876;BME280;40764;48.472;8.166;2022-12-07T08:37:16;98344.91;;;4.04;90.53
54876;BME280;40764;48.472;8.166;2022-12-07T08:43:17;98353.63;;;3.89;90.87
54876;BME280;40764;48.472;8.166;2022-12-07T08:49:20;98348.78;;;3.91;90.92
54876;BME280;40764;48.472;8.166;2022-12-07T08:55:23;98337.28;;;4.01;90.59
54876;BME280;40764;48.472;8.166;2022-12-07T09:01:25;98337.22;;;3.96;89.83
54876;BME280;40764;48.472;8.166;2022-12-07T09:07:25;98334.81;;;4.38;89.25
54876;BME280;40764;48.472;8.166;2022-12-07T09:13:28;98345.56;;;4.55;88.27
54876;BME280;40764;48.472;8.166;2022-12-07T09:19:29;98338.72;;;4.47;87.07
54876;BME280;40764;48.472;8.166;2022-12-07T09:25:29;98339.47;;;4.43;87.57
54876;BME280;40764;48.472;8.166;2022-12-07T09:31:29;98337.25;;;4.61;87.24
54876;BME280;40764;48.472;8.166;2022-12-07T09:37:30;98335.94;;;4.91;85.72
54876;BME280;40764;48.472;8.166;2022-12-07T09:43:36;98333.84;;;4.71;85.90
54876;BME280;40764;48.472;8.166;2022-12-07T09:49:37;98333.31;;;4.96;85.84
54876;BME280;40764;48.472;8.166;2022-12-07T09:55:38;98326.16;;;5.17;85.51
54876;BME280;40764;48.472;8.166;2022-12-07T10:01:39;98318.28;;;5.15;85.15
54876;BME280;40764;48.472;8.166;2022-12-07T10:07:39;98313.56;;;5.33;84.67
54876;BME280;40764;48.472;8.166;2022-12-07T10:13:41;98306.13;;;5.18;84.46
54876;BME280;40764;48.472;8.166;2022-12-07T10:19:42;98296.59;;;5.47;83.67
54876;BME280;40764;48.472;8.166;2022-12-07T10:25:44;98298.06;;;5.60;83.32
54876;BME280;40764;48.472;8.166;2022-12-07T10:31:45;98290.84;;;5.39;81.06
54876;BME280;40764;48.472;8.166;2022-12-07T10:37:46;98280.00;;;5.39;83.15
54876;BME280;40764;48.472;8.166;2022-12-07T10:43:48;98278.31;;;5.70;82.13
54876;BME280;40764;48.472;8.166;2022-12-07T10:50:23;98268.00;;;5.67;80.67
54876;BME280;40764;48.472;8.166;2022-12-07T10:56:35;98262.56;;;5.67;79.33
54876;BME280;40764;48.472;8.166;2022-12-07T11:21:56;98258.03;;;5.03;80.68
54876;BME280;40764;48.472;8.166;2022-12-07T11:34:46;98240.63;;;4.94;83.19
54876;BME280;40764;48.472;8.166;2022-12-07T11:40:52;98239.03;;;4.66;85.88
54876;BME280;40764;48.472;8.166;2022-12-07T11:47:02;98230.06;;;4.92;84.41
54876;BME280;40764;48.472;8.166;2022-12-07T11:53:10;98219.25;;;4.97;84.20
54876;BME280;40764;48.472;8.166;2022-12-07T11:59:29;98213.38;;;5.11;84.90
54876;BME280;40764;48.472;8.166;2022-12-07T12:05:32;98205.31;;;4.84;87.00
54876;BME280;40764;48.472;8.166;2022-12-07T12:24:43;98195.84;;;4.86;87.07
54876;BME280;40764;48.472;8.166;2022-12-07T12:30:45;98199.28;;;5.09;86.75
54876;BME280;40764;48.472;8.166;2022-12-07T12:36:46;98180.25;;;4.98;88.07
54876;BME280;40764;48.472;8.166;2022-12-07T12:48:52;98174.25;;;5.34;85.49
54876;BME280;40764;48.472;8.166;2022-12-07T13:13:51;98150.31;;;5.78;83.72
54876;BME280;40764;48.472;8.166;2022-12-07T13:25:57;98146.50;;;5.69;83.97
54876;BME280;40764;48.472;8.166;2022-12-07T13:32:00;98142.16;;;5.63;84.50
54876;BME280;40764;48.472;8.166;2022-12-07T13:38:23;98135.56;;;5.48;85.02
54876;BME280;40764;48.472;8.166;2022-12-07T13:44:26;98133.31;;;5.30;85.92
54876;BME280;40764;48.472;8.166;2022-12-07T13:50:29;98128.81;;;5.04;85.26
54876;BME280;40764;48.472;8.166;2022-12-07T13:56:34;98120.56;;;5.31;84.72
54876;BME280;40764;48.472;8.166;2022-12-07T14:02:35;98117.59;;;5.32;85.15
54876;BME280;40764;48.472;8.166;2022-12-07T14:08:35;98119.81;;;5.45;85.45
54876;BME280;40764;48.472;8.166;2022-12-07T14:14:36;98118.53;;;5.58;84.14
54876;BME280;40764;48.472;8.166;2022-12-07T14:20:40;98126.66;;;5.58;83.84
54876;BME280;40764;48.472;8.166;2022-12-07T14:26:41;98115.53;;;5.49;84.93
54876;BME280;40764;48.472;8.166;2022-12-07T14:32:42;98121.69;;;5.40;85.80
54876;BME280;40764;48.472;8.166;2022-12-07T14:38:48;98121.16;;;5.38;85.25
54876;BME280;40764;48.472;8.166;2022-12-07T14:44:48;98120.88;;;5.39;84.31
54876;BME280;40764;48.472;8.166;2022-12-07T14:50:51;98116.09;;;5.09;84.91
54876;BME280;40764;48.472;8.166;2022-12-07T14:56:52;98113.38;;;5.04;85.38
54876;BME280;40764;48.472;8.166;2022-12-07T15:02:54;98112.53;;;4.98;85.19
54876;BME280;40764;48.472;8.166;2022-12-07T15:08:55;98110.06;;;4.92;85.57
54876;BME280;40764;48.472;8.166;2022-12-07T15:14:55;98112.56;;;5.04;85.78
54876;BME280;40764;48.472;8.166;2022-12-07T15:21:14;98117.13;;;4.98;86.08
54876;BME280;40764;48.472;8.166;2022-12-07T15:27:14;98110.53;;;4.84;86.48
54876;BME280;40764;48.472;8.166;2022-12-07T15:33:15;98117.22;;;5.13;85.12
54876;BME280;40764;48.472;8.166;2022-12-07T15:39:15;98114.63;;;4.91;86.69
54876;BME280;40764;48.472;8.166;2022-12-07T15:45:16;98118.31;;;4.75;89.61
54876;BME280;40764;48.472;8.166;2022-12-07T15:51:18;98113.91;;;4.64;90.24
54876;BME280;40764;48.472;8.166;2022-12-07T15:57:19;98108.63;;;4.47;91.28
54876;BME280;40764;48.472;8.166;2022-12-07T16:03:19;98104.34;;;4.56;91.72
54876;BME280;40764;48.472;8.166;2022-12-07T16:09:19;98096.91;;;4.74;90.92
54876;BME280;40764;48.472;8.166;2022-12-07T16:15:20;98097.28;;;4.87;90.50
54876;BME280;40764;48.472;8.166;2022-12-07T16:21:21;98093.91;;;4.70;90.89
54876;BME280;40764;48.472;8.166;2022-12-07T16:27:21;98095.25;;;4.68;91.83
54876;BME280;40764;48.472;8.166;2022-12-07T16:33:22;98099.69;;;4.84;90.57
54876;BME280;40764;48.472;8.166;2022-12-07T16:39:22;98095.84;;;4.75;91.45
54876;BME280;40764;48.472;8.166;2022-12-07T16:45:22;98088.97;;;4.99;89.63
54876;BME280;40764;48.472;8.166;2022-12-07T16:51:23;98074.31;;;4.58;90.57
54876;BME280;40764;48.472;8.166;2022-12-07T16:57:23;98079.84;;;4.36;92.79
54876;BME280;40764;48.472;8.166;2022-12-07T17:03:40;98072.06;;;4.45;91.67
54876;BME280;40764;48.472;8.166;2022-12-07T17:09:40;98067.28;;;4.57;91.45
54876;BME280;40764;48.472;8.166;2022-12-07T17:15:40;98061.94;;;4.67;90.77
54876;BME280;40764;48.472;8.166;2022-12-07T17:21:42;98055.22;;;4.75;91.26
54876;BME280;40764;48.472;8.166;2022-12-07T17:27:44;98047.69;;;4.87;89.65
54876;BME280;40764;48.472;8.166;2022-12-07T17:33:44;98049.50;;;4.71;90.73
54876;BME280;40764;48.472;8.166;2022-12-07T17:39:45;98045.72;;;4.72;90.22
54876;BME280;40764;48.472;8.166;2022-12-07T17:45:45;98046.28;;;4.74;90.64
54876;BME280;40764;48.472;8.166;2022-12-07T17:51:46;98030.47;;;4.61;91.01
54876;BME280;40764;48.472;8.166;2022-12-07T17:58:05;98031.13;;;4.36;91.81
54876;BME280;40764;48.472;8.166;2022-12-07T18:04:06;98020.88;;;4.38;93.24
54876;BME280;40764;48.472;8.166;2022-12-07T18:10:07;98034.09;;;4.02;93.83
54876;BME280;40764;48.472;8.166;2022-12-07T18:16:12;98037.81;;;4.28;92.69
54876;BME280;40764;48.472;8.166;2022-12-07T18:22:12;98036.19;;;4.27;91.94
54876;BME280;40764;48.472;8.166;2022-12-07T18:28:13;98030.94;;;4.48;90.76
54876;BME280;40764;48.472;8.166;2022-12-07T18:34:16;98029.03;;;4.43;90.84
54876;BME280;40764;48.472;8.166;2022-12-07T18:40:16;98030.22;;;4.25;90.02
54876;BME280;40764;48.472;8.166;2022-12-07T18:46:19;98024.59;;;4.32;89.88
54876;BME280;40764;48.472;8.166;2022-12-07T18:52:19;98030.16;;;4.52;89.13
54876;BME280;40764;48.472;8.166;2022-12-07T18:58:20;98028.38;;;4.68;88.54
54876;BME280;40764;48.472;8.166;2022-12-07T19:04:20;98025.38;;;4.64;88.96
54876;BME280;40764;48.472;8.166;2022-12-07T19:10:21;98031.50;;;4.50;89.22
54876;BME280;40764;48.472;8.166;2022-12-07T19:16:21;98019.59;;;4.14;90.93
54876;BME280;40764;48.472;8.166;2022-12-07T19:22:22;98014.72;;;4.16;92.02
54876;BME280;40764;48.472;8.166;2022-12-07T19:28:25;98019.47;;;4.03;92.85
54876;BME280;40764;48.472;8.166;2022-12-07T19:34:25;98011.72;;;4.12;91.27
54876;BME280;40764;48.472;8.166;2022-12-07T19:40:25;98020.09;;;4.43;91.11
54876;BME280;40764;48.472;8.166;2022-12-07T19:46:26;98018.34;;;4.31;90.58
54876;BME280;40764;48.472;8.166;2022-12-07T19:52:28;98019.06;;;4.17;90.65
54876;BME280;40764;48.472;8.166;2022-12-07T19:58:28;98011.06;;;4.32;89.09
54876;BME280;40764;48.472;8.166;2022-12-07T20:04:30;98000.09;;;4.12;90.09
54876;BME280;40764;48.472;8.166;2022-12-07T20:10:38;97997.50;;;3.95;90.70
54876;BME280;40764;48.472;8.166;2022-12-07T20:16:40;97992.13;;;3.68;92.68
54876;BME280;40764;48.472;8.166;2022-12-07T20:22:40;97976.47;;;3.70;93.59
54876;BME280;40764;48.472;8.166;2022-12-07T20:28:41;97975.81;;;3.58;94.45
54876;BME280;40764;48.472;8.166;2022-12-07T20:34:45;97969.25;;;3.49;94.49
54876;BME280;40764;48.472;8.166;2022-12-07T20:40:47;97962.13;;;3.16;95.76
54876;BME280;40764;48.472;8.166;2022-12-07T20:46:48;97966.63;;;3.32;96.94
54876;BME280;40764;48.472;8.166;2022-12-07T20:52:48;97959.00;;;3.51;95.67
54876;BME280;40764;48.472;8.166;2022-12-07T20:58:49;97959.25;;;3.49;96.07
54876;BME280;40764;48.472;8.166;2022-12-07T21:04:49;97951.97;;;3.50;95.33
54876;BME280;40764;48.472;8.166;2022-12-07T21:10:49;97938.38;;;3.45;95.38
54876;BME280;40764;48.472;8.166;2022-12-07T21:16:50;97937.47;;;3.61;94.75
54876;BME280;40764;48.472;8.166;2022-12-07T21:22:58;97940.72;;;3.36;94.34
54876;BME280;40764;48.472;8.166;2022-12-07T21:29:02;97938.72;;;3.48;95.29
54876;BME280;40764;48.472;8.166;2022-12-07T21:35:03;97935.00;;;3.59;95.19
54876;BME280;40764;48.472;8.166;2022-12-07T21:47:15;97927.25;;;3.41;95.05
54876;BME280;40764;48.472;8.166;2022-12-07T21:53:15;97925.50;;;3.52;95.09
54876;BME280;40764;48.472;8.166;2022-12-07T21:59:16;97936.38;;;3.62;94.36
54876;BME280;40764;48.472;8.166;2022-12-07T22:05:22;97929.97;;;3.41;94.99
54876;BME280;40764;48.472;8.166;2022-12-07T22:11:23;97933.66;;;3.30;95.04
54876;BME280;40764;48.472;8.166;2022-12-07T22:17:23;97934.56;;;3.14;95.40
54876;BME280;40764;48.472;8.166;2022-12-07T22:23:25;97931.16;;;3.23;95.94
54876;BME280;40764;48.472;8.166;2022-12-07T22:29:26;97927.38;;;3.24;96.13
54876;BME280;40764;48.472;8.166;2022-12-07T22:35:27;97923.47;;;3.69;95.38
54876;BME280;40764;48.472;8.166;2022-12-07T22:41:30;97918.91;;;3.42;94.34
54876;BME280;40764;48.472;8.166;2022-12-07T22:47:32;97920.09;;;3.25;95.79
54876;BME280;40764;48.472;8.166;2022-12-07T22:53:32;97909.34;;;3.30;95.50
54876;BME280;40764;48.472;8.166;2022-12-07T22:59:32;97905.56;;;3.31;95.69
54876;BME280;40764;48.472;8.166;2022-12-07T23:05:33;97912.28;;;3.01;96.26
54876;BME280;40764;48.472;8.166;2022-12-07T23:11:41;97903.47;;;3.11;96.47
54876;BME280;40764;48.472;8.166;2022-12-07T23:18:02;97896.72;;;2.87;96.36
54876;BME280;40764;48.472;8.166;2022-12-07T23:24:26;97891.09;;;2.66;97.85
54876;BME280;40764;48.472;8.166;2022-12-07T23:30:26;97871.56;;;2.59;97.83
54876;BME280;40764;48.472;8.166;2022-12-07T23:36:27;97879.53;;;2.71;97.55
54876;BME280;40764;48.472;8.166;2022-12-07T23:42:38;97872.50;;;2.70;96.72
54876;BME280;40764;48.472;8.166;2022-12-07T23:48:39;97873.91;;;2.72;97.35
54876;BME280;40764;48.472;8.166;2022-12-07T23:54:43;97869.31;;;2.51;96.68
